Time;durP1;ratioP1;P1;durP2;ratioP2;P2;SDS_P1;SDS_P2;PMS_P1;PMS_P2;Temp;Humidity;BMP_temperature;BMP_pressure;BME280_temperature;BME280_humidity;BME280_pressure;Samples;Min_cycle;Max_cycle;Signal;HPM_P1;HPM_P2
2021/07/19 05:16:52;;;;;;;15.78;7.80;;;;;;;40.82;30.34;100035.17;1842221;76;25230;-73
2021/07/19 05:19:25;;;;;;;16.95;7.95;;;;;;;41.20;29.94;100038.97;1727419;81;21930;-75
2021/07/19 05:21:59;;;;;;;12.63;8.55;;;;;;;41.60;29.02;100042.62;1774003;79;21599;-73
2021/07/19 05:24:33;;;;;;;14.23;8.10;;;;;;;41.95;28.32;100035.19;1780355;79;21847;-73
2021/07/19 05:27:07;;;;;;;13.15;8.05;;;;;;;42.33;27.94;100026.43;1775661;80;21331;-71
2021/07/19 05:29:40;;;;;;;12.05;7.50;;;;;;;42.70;27.20;100030.02;1774726;79;21259;-71
2021/07/19 05:32:13;;;;;;;10.63;7.60;;;;;;;42.98;27.03;100024.99;1776895;79;21109;-71
2021/07/19 05:34:46;;;;;;;11.43;7.33;;;;;;;43.34;26.45;100024.11;1779792;79;21795;-70
2021/07/19 05:37:20;;;;;;;16.50;7.67;;;;;;;43.68;26.12;100020.30;1774407;79;21700;-69
2021/07/19 05:39:54;;;;;;;12.85;7.30;;;;;;;44.03;25.55;100025.17;1778785;79;21146;-69
2021/07/19 05:42:27;;;;;;;13.98;7.72;;;;;;;44.32;25.35;100029.29;1772980;79;21303;-70
2021/07/19 05:45:01;;;;;;;11.73;7.72;;;;;;;44.52;24.99;100026.73;1773851;79;21335;-68
2021/07/19 05:47:33;;;;;;;8.90;7.17;;;;;;;44.72;24.58;100029.05;1778683;79;21278;-70
2021/07/19 05:50:08;;;;;;;22.93;8.93;;;;;;;44.87;24.44;100025.97;1775270;79;21296;-70
2021/07/19 05:52:41;;;;;;;12.47;7.65;;;;;;;45.07;24.22;100032.97;1783273;79;21850;-70
2021/07/19 05:55:15;;;;;;;16.23;8.65;;;;;;;45.27;24.15;100024.02;1773575;79;21747;-70
2021/07/19 05:57:48;;;;;;;13.75;7.83;;;;;;;45.56;23.74;100026.58;1777077;79;21311;-67
2021/07/19 06:00:21;;;;;;;14.18;8.33;;;;;;;45.89;23.39;100019.70;1775299;79;21251;-71
2021/07/19 06:02:54;;;;;;;16.07;8.30;;;;;;;46.13;23.04;100014.25;1772205;79;21185;-68
2021/07/19 06:05:28;;;;;;;13.78;8.25;;;;;;;46.35;22.86;100013.33;1775781;79;21319;-68
2021/07/19 06:08:02;;;;;;;13.40;7.80;;;;;;;46.14;22.99;100008.36;1770704;79;21224;-72
2021/07/19 06:10:35;;;;;;;16.17;8.30;;;;;;;45.80;23.22;100016.44;1780920;79;21287;-72
2021/07/19 06:13:08;;;;;;;16.10;8.65;;;;;;;45.56;23.58;100016.32;1780237;79;21293;-72
2021/07/19 06:15:41;;;;;;;13.22;8.15;;;;;;;45.72;23.63;100014.75;1776589;79;21286;-71
2021/07/19 06:18:16;;;;;;;12.28;8.18;;;;;;;46.04;23.46;100012.61;1764511;80;21819;-74
2021/07/19 06:20:48;;;;;;;17.73;8.68;;;;;;;46.39;22.90;100016.33;1768924;79;21248;-71
2021/07/19 06:23:22;;;;;;;11.95;8.00;;;;;;;46.68;22.62;100014.02;1766173;80;22140;-68
2021/07/19 06:25:56;;;;;;;13.00;7.50;;;;;;;46.98;22.27;100016.66;1763373;79;21865;-72
2021/07/19 06:28:28;;;;;;;12.13;7.53;;;;;;;47.27;21.88;100014.85;1766235;79;21289;-71
2021/07/19 06:31:02;;;;;;;11.00;7.50;;;;;;;47.47;21.43;100020.34;1766817;79;21284;-71
2021/07/19 06:33:35;;;;;;;10.20;7.30;;;;;;;47.71;21.22;100014.70;1768190;80;21283;-70
2021/07/19 06:36:09;;;;;;;16.67;7.92;;;;;;;47.93;20.84;100014.41;1768089;80;21237;-71
2021/07/19 06:38:44;;;;;;;15.25;7.37;;;;;;;48.17;20.55;100011.52;1768517;80;21288;-70
2021/07/19 06:41:17;;;;;;;14.93;7.55;;;;;;;48.29;20.37;100013.92;1766397;79;21871;-70
2021/07/19 06:43:50;;;;;;;12.20;7.17;;;;;;;48.46;20.07;100013.11;1768361;79;21732;-70
2021/07/19 06:46:23;;;;;;;9.53;6.65;;;;;;;48.66;19.95;100013.55;1766999;80;21190;-72
2021/07/19 06:48:56;;;;;;;10.45;6.95;;;;;;;48.91;19.37;100009.39;1764395;79;21311;-72
2021/07/19 06:51:29;;;;;;;13.00;6.33;;;;;;;49.14;19.46;100005.55;1765341;80;21285;-68
2021/07/19 06:54:03;;;;;;;11.28;5.97;;;;;;;49.43;18.83;100011.84;1765155;79;21300;-69
2021/07/19 06:56:36;;;;;;;9.70;5.12;;;;;;;49.71;17.89;100004.79;1762969;80;21292;-71
2021/07/19 06:59:10;;;;;;;17.50;5.70;;;;;;;49.95;17.70;100004.48;1765247;79;21248;-71
2021/07/19 07:01:44;;;;;;;9.00;5.58;;;;;;;50.25;17.47;100001.94;1766272;80;21213;-69
2021/07/19 07:04:18;;;;;;;13.40;5.35;;;;;;;50.54;16.75;100001.28;1761438;79;21319;-72
2021/07/19 07:06:53;;;;;;;11.20;5.35;;;;;;;50.76;16.21;99999.75;1765337;80;21161;-70
2021/07/19 07:09:26;;;;;;;8.38;5.35;;;;;;;50.95;15.84;99997.16;1763326;79;21870;-70
2021/07/19 07:12:01;;;;;;;13.40;5.40;;;;;;;51.15;15.95;99997.36;1758067;80;21276;-72
2021/07/19 07:14:35;;;;;;;9.75;5.17;;;;;;;51.33;15.56;99997.19;1769785;79;21150;-72
2021/07/19 07:17:08;;;;;;;8.75;4.83;;;;;;;51.50;15.20;99998.34;1762411;80;21330;-71
2021/07/19 07:19:41;;;;;;;10.08;5.50;;;;;;;51.68;14.91;99993.36;1760423;79;21819;-71
2021/07/19 07:22:14;;;;;;;7.95;4.62;;;;;;;51.92;14.60;99990.66;1756678;80;21311;-74
2021/07/19 07:24:48;;;;;;;10.45;4.67;;;;;;;52.04;14.20;99996.45;1758169;80;21285;-70
2021/07/19 07:27:23;;;;;;;9.28;4.67;;;;;;;52.10;14.12;99999.54;1758659;80;21217;-71
2021/07/19 07:29:57;;;;;;;12.00;5.42;;;;;;;52.18;13.88;99996.83;1757113;79;21320;-71
2021/07/19 07:32:30;;;;;;;10.23;4.78;;;;;;;52.28;13.49;99993.11;1770886;78;21342;-72
2021/07/19 07:35:04;;;;;;;11.70;4.83;;;;;;;52.40;13.48;99991.12;1769485;80;21213;-71
2021/07/19 07:37:40;;;;;;;16.42;5.00;;;;;;;52.49;13.54;99987.77;1770333;78;21315;-73
2021/07/19 07:40:17;;;;;;;11.20;5.22;;;;;;;52.57;13.39;99992.85;1771152;80;21177;-72
2021/07/19 07:42:50;;;;;;;9.50;4.97;;;;;;;52.66;13.28;99984.70;1769235;79;21762;-73
2021/07/19 07:45:22;;;;;;;12.78;5.45;;;;;;;52.80;13.29;99984.43;1773695;79;21339;-74
2021/07/19 07:47:55;;;;;;;8.90;4.65;;;;;;;52.93;13.07;99982.59;1769663;78;21288;-68
2021/07/19 07:50:29;;;;;;;6.25;5.12;;;;;;;53.06;12.92;99984.16;1768988;78;21272;-72
2021/07/19 07:53:02;;;;;;;7.85;4.75;;;;;;;53.11;12.83;99980.06;1774299;80;21181;-71
2021/07/19 07:55:35;;;;;;;9.38;5.20;;;;;;;53.08;12.59;99974.72;1767714;78;21225;-71
2021/07/19 07:58:08;;;;;;;10.35;5.15;;;;;;;52.98;12.75;99972.91;1765689;78;21432;-71
2021/07/19 08:00:41;;;;;;;14.05;4.67;;;;;;;52.78;12.84;99974.89;1773929;79;21300;-70
2021/07/19 08:03:14;;;;;;;6.87;4.15;;;;;;;52.58;12.86;99975.45;1764464;80;21324;-72
2021/07/19 08:05:48;;;;;;;12.88;4.50;;;;;;;52.20;13.04;99983.23;1772246;79;21312;-73
2021/07/19 08:08:21;;;;;;;8.95;4.50;;;;;;;51.84;13.21;99975.98;1766203;78;21280;-71
2021/07/19 08:10:53;;;;;;;8.88;4.30;;;;;;;51.32;13.28;99981.64;1772690;79;21330;-71
2021/07/19 08:13:27;;;;;;;11.65;4.20;;;;;;;51.03;13.88;99979.16;1721277;80;21339;-68
2021/07/19 08:16:02;;;;;;;10.43;4.33;;;;;;;50.98;13.39;99975.44;1758412;80;21268;-69
2021/07/19 08:18:35;;;;;;;11.85;4.10;;;;;;;50.83;13.53;99981.56;1755328;80;21366;-70
2021/07/19 08:21:08;;;;;;;7.50;4.00;;;;;;;50.50;13.31;99976.85;1764773;79;21292;-71
2021/07/19 08:23:41;;;;;;;13.15;4.05;;;;;;;50.08;13.00;99977.77;1766187;80;21181;-69
2021/07/19 08:26:14;;;;;;;10.63;3.58;;;;;;;49.73;13.52;99982.31;1764292;79;21107;-70
2021/07/19 08:28:47;;;;;;;10.90;3.67;;;;;;;49.38;12.96;99977.49;1762609;80;21404;-70
2021/07/19 08:31:20;;;;;;;8.63;3.15;;;;;;;49.24;13.57;99979.74;1763540;80;21310;-71
2021/07/19 08:33:54;;;;;;;11.38;3.58;;;;;;;49.33;13.70;99974.53;1761934;79;21207;-70
2021/07/19 08:36:28;;;;;;;4.75;3.10;;;;;;;49.47;13.42;99973.08;1770806;79;21179;-69
2021/07/19 08:39:02;;;;;;;14.35;3.30;;;;;;;49.58;13.55;99977.25;1765009;80;21273;-68
2021/07/19 08:41:36;;;;;;;21.87;3.72;;;;;;;49.72;13.58;99972.99;1765178;79;21330;-69
2021/07/19 08:44:10;;;;;;;9.58;4.03;;;;;;;49.74;13.33;99970.59;1732521;80;21131;-70
2021/07/19 08:46:43;;;;;;;11.00;3.55;;;;;;;49.73;13.67;99971.81;1759861;79;21774;-70
2021/07/19 08:49:16;;;;;;;6.92;3.37;;;;;;;49.69;13.26;99965.45;1767945;79;21440;-71
2021/07/19 08:51:49;;;;;;;8.35;3.37;;;;;;;49.41;12.42;99966.37;1765134;80;21863;-70
2021/07/19 08:54:22;;;;;;;12.45;3.22;;;;;;;49.20;12.84;99955.33;1765250;79;21199;-70
2021/07/19 08:56:58;;;;;;;12.65;3.45;;;;;;;49.15;13.07;99949.56;1763815;80;21598;-71
2021/07/19 08:59:33;;;;;;;14.70;3.90;;;;;;;49.16;13.17;99952.52;1762234;80;21294;-69
2021/07/19 09:02:10;;;;;;;9.40;3.27;;;;;;;48.88;13.34;99945.66;1721306;81;21440;-70
2021/07/19 09:04:44;;;;;;;7.53;3.55;;;;;;;48.72;13.60;99944.48;1735738;80;21260;-69
2021/07/19 09:07:17;;;;;;;12.95;3.83;;;;;;;48.64;13.36;99941.72;1769893;80;21186;-69
2021/07/19 09:09:52;;;;;;;12.60;3.62;;;;;;;48.43;13.82;99931.19;1763174;80;22198;-70
2021/07/19 09:12:38;;;;;;;11.00;3.80;;;;;;;48.21;14.10;99933.77;1769099;80;21735;-70
2021/07/19 09:15:14;;;;;;;9.13;3.50;;;;;;;48.08;14.75;99927.80;1751047;81;21228;-70
2021/07/19 09:17:47;;;;;;;12.03;3.47;;;;;;;47.94;14.98;99924.40;1766245;80;21339;-71
2021/07/19 09:20:20;;;;;;;9.85;3.77;;;;;;;47.81;14.86;99927.38;1727551;80;21668;-71
2021/07/19 09:22:54;;;;;;;4.72;3.20;;;;;;;47.73;15.04;99930.48;1685297;82;21447;-69
2021/07/19 09:25:28;;;;;;;8.28;3.40;;;;;;;47.60;14.92;99927.30;1739011;82;21318;-73
2021/07/19 09:28:06;;;;;;;11.25;4.20;;;;;;;47.35;15.04;99934.11;1767607;80;21295;-71
2021/07/19 09:30:45;;;;;;;5.47;3.42;;;;;;;46.78;15.63;99932.78;1768529;80;21840;-70
2021/07/19 09:33:19;;;;;;;9.28;3.52;;;;;;;46.44;15.86;99928.77;1772922;80;21290;-71
2021/07/19 09:35:53;;;;;;;12.68;3.70;;;;;;;46.23;15.99;99922.23;1773063;80;21224;-69
2021/07/19 09:38:29;;;;;;;11.88;3.90;;;;;;;46.03;16.30;99922.45;1767330;80;21456;-72
2021/07/19 09:41:03;;;;;;;5.85;3.10;;;;;;;45.81;16.61;99917.08;1762706;80;21852;-71
2021/07/19 09:43:36;;;;;;;18.17;4.42;;;;;;;45.68;16.81;99922.66;1760810;81;21258;-70
2021/07/19 09:46:10;;;;;;;11.53;3.80;;;;;;;45.46;16.83;99914.67;1760205;80;21195;-70
2021/07/19 09:48:43;;;;;;;7.22;3.00;;;;;;;45.27;17.46;99915.64;1759962;81;21286;-70
2021/07/19 09:51:16;;;;;;;9.38;3.87;;;;;;;45.08;17.40;99916.34;1785068;80;21333;-70
2021/07/19 09:53:50;;;;;;;12.60;3.60;;;;;;;44.88;17.71;99920.42;1705960;82;21303;-68
2021/07/19 09:56:23;;;;;;;13.13;3.55;;;;;;;44.67;17.90;99920.85;1759691;80;21307;-68
2021/07/19 09:59:09;;;;;;;10.28;3.83;;;;;;;44.35;17.52;99914.02;1761053;80;21257;-69
2021/07/19 10:01:45;;;;;;;15.40;3.92;;;;;;;44.01;17.59;99915.20;1771602;80;21228;-71
2021/07/19 10:04:20;;;;;;;6.87;3.42;;;;;;;43.67;18.54;99913.34;1777044;80;21872;-70
2021/07/19 10:06:56;;;;;;;8.13;3.27;;;;;;;43.50;18.90;99909.08;1766474;80;21190;-70
2021/07/19 10:09:29;;;;;;;8.78;3.83;;;;;;;43.39;19.21;99913.59;1772904;80;21182;-73
2021/07/19 10:12:06;;;;;;;7.80;3.47;;;;;;;43.32;19.37;99907.94;1767114;80;21292;-71
2021/07/19 10:14:38;;;;;;;14.45;3.83;;;;;;;43.28;18.91;99912.53;1742076;80;21298;-70
2021/07/19 10:17:12;;;;;;;8.35;3.75;;;;;;;42.97;18.40;99908.51;1766628;80;21276;-72
2021/07/19 10:19:45;;;;;;;6.72;3.37;;;;;;;42.56;18.50;99909.92;1725737;81;21190;-70
2021/07/19 10:22:18;;;;;;;9.35;3.92;;;;;;;42.30;18.76;99904.72;1770518;80;21749;-73
2021/07/19 10:24:51;;;;;;;8.80;3.90;;;;;;;42.20;18.85;99908.20;1756529;80;21829;-71
2021/07/19 10:27:28;;;;;;;10.23;3.72;;;;;;;42.18;19.67;99898.13;1765197;80;22343;-71
2021/07/19 10:30:02;;;;;;;16.87;3.87;;;;;;;42.17;20.13;99902.05;1762880;80;21286;-72
2021/07/19 10:32:36;;;;;;;11.38;4.00;;;;;;;42.17;20.21;99900.69;1768391;80;21264;-68
2021/07/19 10:35:09;;;;;;;15.60;3.90;;;;;;;42.15;19.78;99902.19;1746786;80;21199;-71
2021/07/19 10:38:05;;;;;;;16.20;3.60;;;;;;;41.96;19.94;99900.68;1726968;81;21304;-71
2021/07/19 10:40:38;;;;;;;13.18;3.90;;;;;;;41.80;20.35;99894.36;1766383;80;21433;-74
2021/07/19 10:43:18;;;;;;;7.42;3.77;;;;;;;41.70;20.80;99894.30;1773820;80;21169;-71
2021/07/19 10:46:01;;;;;;;9.35;3.67;;;;;;;41.71;21.09;99889.02;1768728;80;21284;-69
2021/07/19 10:48:32;;;;;;;10.80;3.47;;;;;;;41.72;21.00;99886.50;1770052;80;21244;-72
2021/07/19 10:51:21;;;;;;;9.30;3.80;;;;;;;41.72;21.09;99888.44;1764995;80;21229;-72
2021/07/19 10:53:54;;;;;;;13.50;3.47;;;;;;;41.52;20.36;99881.98;1764864;80;21262;-73
2021/07/19 10:56:30;;;;;;;11.63;3.83;;;;;;;41.21;20.20;99875.78;1766385;80;21726;-72
2021/07/19 10:59:03;;;;;;;7.35;2.95;;;;;;;40.97;20.05;99878.02;1766350;80;21175;-71
2021/07/19 11:01:36;;;;;;;13.72;3.55;;;;;;;40.84;19.76;99873.66;1771863;80;21339;-74
2021/07/19 11:04:16;;;;;;;29.50;4.28;;;;;;;40.76;20.01;99871.86;1765481;80;21850;-75
2021/07/19 11:06:56;;;;;;;15.75;3.62;;;;;;;40.69;20.40;99865.34;1765633;80;21688;-72
2021/07/19 11:09:36;;;;;;;11.25;3.45;;;;;;;40.58;20.30;99862.86;1765915;80;21212;-70
2021/07/19 11:12:11;;;;;;;11.15;3.25;;;;;;;40.58;20.65;99858.74;1768363;80;21331;-71
2021/07/19 11:14:52;;;;;;;6.30;3.15;;;;;;;40.68;20.88;99857.69;1768413;80;21852;-72
2021/07/19 11:17:29;;;;;;;11.60;3.20;;;;;;;40.74;20.37;99852.77;1744209;80;21275;-71
2021/07/19 11:20:12;;;;;;;10.93;3.67;;;;;;;40.66;20.14;99842.14;1770566;80;21113;-71
2021/07/19 11:22:46;;;;;;;14.73;3.67;;;;;;;40.65;20.83;99847.98;1760770;80;21185;-72
2021/07/19 11:25:21;;;;;;;7.08;3.12;;;;;;;40.68;20.93;99850.83;1757366;80;21686;-71
2021/07/19 11:27:54;;;;;;;9.13;3.45;;;;;;;40.74;20.95;99839.05;1758313;80;21320;-72
2021/07/19 11:30:27;;;;;;;11.30;2.92;;;;;;;40.83;20.88;99838.33;1761908;79;21477;-71
2021/07/19 11:33:00;;;;;;;9.63;3.30;;;;;;;40.90;20.99;99835.83;1765604;80;21284;-73
2021/07/19 11:35:39;;;;;;;18.15;4.12;;;;;;;40.89;21.01;99840.52;1721738;80;21269;-74
2021/07/19 11:38:15;;;;;;;9.90;3.85;;;;;;;40.69;21.53;99835.97;1758014;80;21315;-72
2021/07/19 11:40:50;;;;;;;4.90;2.58;;;;;;;40.39;21.93;99835.95;1760076;80;22203;-70
2021/07/19 11:43:27;;;;;;;9.28;3.83;;;;;;;40.14;22.36;99836.55;1758054;79;21248;-72
2021/07/19 11:45:59;;;;;;;13.13;3.75;;;;;;;39.99;23.09;99843.23;1758958;79;21685;-71
2021/07/19 11:48:33;;;;;;;14.50;3.90;;;;;;;39.97;23.27;99838.09;1763469;79;21204;-71
2021/07/19 11:51:06;;;;;;;10.63;3.52;;;;;;;39.99;22.96;99834.44;1756698;79;21182;-72
2021/07/19 11:53:43;;;;;;;11.28;3.60;;;;;;;39.97;21.66;99835.36;1764879;79;21227;-73
2021/07/19 11:56:19;;;;;;;6.83;3.20;;;;;;;39.87;21.51;99830.31;1760628;79;21293;-73
2021/07/19 11:59:01;;;;;;;10.85;3.58;;;;;;;39.79;21.86;99825.75;1748658;79;21326;-74
2021/07/19 12:01:37;;;;;;;10.60;3.40;;;;;;;39.75;21.47;99826.73;1763903;80;21297;-73
2021/07/19 12:04:10;;;;;;;8.93;3.30;;;;;;;39.64;21.34;99822.28;1770745;79;21267;-73
2021/07/19 12:06:48;;;;;;;14.78;3.42;;;;;;;39.50;22.01;99825.86;1765794;80;21275;-71
2021/07/19 12:09:21;;;;;;;12.43;3.55;;;;;;;39.35;22.17;99821.82;1690832;81;21325;-75
2021/07/19 12:11:55;;;;;;;13.05;3.98;;;;;;;39.31;22.44;99820.09;1695134;81;21320;-72
2021/07/19 12:14:27;;;;;;;12.05;4.00;;;;;;;39.30;23.23;99813.81;1718078;82;21201;-73
2021/07/19 12:17:01;;;;;;;12.15;3.55;;;;;;;39.35;23.54;99812.23;1683134;82;21308;-69
2021/07/19 12:19:34;;;;;;;10.63;3.70;;;;;;;39.38;23.53;99814.30;1767445;79;21284;-73
2021/07/19 12:22:08;;;;;;;9.95;3.55;;;;;;;39.36;23.30;99813.81;1767129;80;21265;-70
2021/07/19 12:24:41;;;;;;;13.30;3.80;;;;;;;39.33;23.09;99806.86;1785457;78;21129;-72
2021/07/19 12:27:14;;;;;;;10.43;3.27;;;;;;;39.27;22.56;99805.45;1788497;78;21310;-72
2021/07/19 12:29:47;;;;;;;7.58;3.20;;;;;;;39.23;23.32;99799.06;1738754;80;21285;-72
2021/07/19 12:32:20;;;;;;;11.18;3.62;;;;;;;39.25;22.79;99792.67;1720178;80;21288;-74
2021/07/19 12:34:53;;;;;;;12.30;4.22;;;;;;;39.28;23.38;99791.44;1768271;79;21254;-72
2021/07/19 12:37:26;;;;;;;10.65;3.72;;;;;;;39.32;23.07;99786.88;1765000;80;21252;-74
2021/07/19 12:40:00;;;;;;;12.53;3.15;;;;;;;39.37;22.94;99788.04;1766711;80;21321;-72
2021/07/19 12:42:34;;;;;;;7.22;3.67;;;;;;;39.39;22.90;99783.02;1770232;80;21216;-77
2021/07/19 12:45:08;;;;;;;10.18;3.60;;;;;;;39.36;22.49;99779.58;1763452;80;21331;-70
2021/07/19 12:47:42;;;;;;;9.25;3.08;;;;;;;39.35;22.47;99773.08;1768094;80;21336;-71
2021/07/19 12:50:15;;;;;;;11.45;3.60;;;;;;;39.29;22.73;99772.48;1718329;80;22308;-73
2021/07/19 12:52:48;;;;;;;9.43;3.72;;;;;;;39.23;22.53;99778.52;1764448;80;21879;-72
2021/07/19 12:55:28;;;;;;;9.05;3.45;;;;;;;39.11;22.61;99771.59;1761922;80;21198;-72
2021/07/19 12:58:01;;;;;;;16.45;3.70;;;;;;;39.00;22.95;99775.34;1753949;81;21941;-71
2021/07/19 13:00:35;;;;;;;9.88;3.67;;;;;;;38.90;22.88;99767.53;1766323;80;21135;-72
2021/07/19 13:03:09;;;;;;;16.93;3.72;;;;;;;38.82;23.18;99765.66;1761084;80;21294;-73
2021/07/19 13:05:51;;;;;;;7.80;3.25;;;;;;;38.79;23.35;99763.58;1758318;80;21884;-72
2021/07/19 13:08:36;;;;;;;11.93;3.80;;;;;;;38.79;22.88;99761.65;1763180;80;21185;-72
2021/07/19 13:11:14;;;;;;;11.80;3.25;;;;;;;38.77;21.82;99757.64;1757413;80;21158;-71
2021/07/19 13:13:47;;;;;;;11.78;3.40;;;;;;;38.71;22.00;99749.39;1760670;80;21342;-72
2021/07/19 13:16:24;;;;;;;12.60;3.47;;;;;;;38.68;22.29;99754.16;1768360;80;21185;-72
2021/07/19 13:18:58;;;;;;;11.22;3.85;;;;;;;38.69;22.38;99744.82;1731238;82;21212;-75
2021/07/19 13:21:31;;;;;;;10.00;3.52;;;;;;;38.72;23.34;99745.53;1731043;81;21236;-71
2021/07/19 13:24:14;;;;;;;11.45;4.00;;;;;;;38.73;23.26;99747.95;1726535;81;21839;-73
2021/07/19 13:26:47;;;;;;;6.78;3.60;;;;;;;38.74;23.32;99746.02;1727646;81;21308;-73
2021/07/19 13:29:21;;;;;;;8.70;3.35;;;;;;;38.75;23.71;99747.05;1762088;79;21302;-73
2021/07/19 13:32:08;;;;;;;12.18;3.67;;;;;;;38.75;22.98;99744.31;1770643;80;21174;-73
2021/07/19 13:34:41;;;;;;;13.00;4.05;;;;;;;38.70;23.24;99743.67;1769188;80;21284;-72
2021/07/19 13:37:14;;;;;;;12.95;3.83;;;;;;;38.66;23.85;99738.08;1768896;79;21278;-72
2021/07/19 13:39:47;;;;;;;14.38;3.52;;;;;;;38.67;23.89;99737.52;1748873;80;21280;-72
2021/07/19 13:42:21;;;;;;;;;;;;;;;38.61;24.42;99741.58;1773258;79;21410;-73
2021/07/19 13:44:53;;;;;;;10.45;3.35;;;;;;;38.53;24.13;99743.23;1761823;79;20298;-73
2021/07/19 13:47:26;;;;;;;17.52;3.33;;;;;;;38.46;24.14;99742.97;1779881;79;21253;-73
2021/07/19 13:49:59;;;;;;;;;;;;;;;38.47;24.16;99744.58;1770674;78;21813;-73
2021/07/19 13:52:32;;;;;;;10.23;3.67;;;;;;;38.50;24.06;99737.65;1769274;79;20204;-72
